<?xml version="1.0" encoding="UTF-8" standalone="no" ?>
<gpx xmlns="http://www.topografix.com/GPX/1/1" xmlns:xsi="http://www.w3.org/2001/XMLSchema-instance" xsi:schemaLocation="http://www.topografix.com/GPX/1/1 http://www.topografix.com/GPX/1/1/gpx.xsd" version="1.1" creator="VisuGPX - https://www.visugpx.com">
  <metadata>
    <name>222011</name>
    <desc><![CDATA[Balade vendéenne 2]]></desc>
  </metadata>
  <trk>
    <name><![CDATA[ACTIVE LOG102038]]></name>
    <trkseg>
      <trkpt lat="46.91651" lon="-2.04646">
        <ele>4.052</ele>
        <time>2011-08-05T08:20:37Z</time>
      </trkpt>
      <trkpt lat="46.91657" lon="-2.04643">
        <ele>2.188</ele>
        <time>2011-08-05T08:20:38Z</time>
      </trkpt>
      <trkpt lat="46.91692" lon="-2.04626">
        <ele>2.763</ele>
        <time>2011-08-05T08:20:44Z</time>
      </trkpt>
      <trkpt lat="46.91772" lon="-2.0453">
        <ele>3.805</ele>
        <time>2011-08-05T08:21:02Z</time>
      </trkpt>
      <trkpt lat="46.91838" lon="-2.04437">
        <ele>3.538</ele>
        <time>2011-08-05T08:21:20Z</time>
      </trkpt>
      <trkpt lat="46.91845" lon="-2.04427">
        <ele>3.507</ele>
        <time>2011-08-05T08:21:23Z</time>
      </trkpt>
      <trkpt lat="46.91845" lon="-2.04427">
        <ele>3.375</ele>
        <time>2011-08-05T08:21:26Z</time>
      </trkpt>
      <trkpt lat="46.91975" lon="-2.04294">
        <ele>2.99</ele>
        <time>2011-08-05T08:21:47Z</time>
      </trkpt>
      <trkpt lat="46.9212" lon="-2.04225">
        <ele>1.556</ele>
        <time>2011-08-05T08:22:08Z</time>
      </trkpt>
      <trkpt lat="46.92304" lon="-2.04131">
        <ele>1.083</ele>
        <time>2011-08-05T08:22:34Z</time>
      </trkpt>
      <trkpt lat="46.9249" lon="-2.04052">
        <ele>1.762</ele>
        <time>2011-08-05T08:23:00Z</time>
      </trkpt>
      <trkpt lat="46.92581" lon="-2.04062">
        <ele>0.387</ele>
        <time>2011-08-05T08:23:12Z</time>
      </trkpt>
      <trkpt lat="46.9267" lon="-2.04086">
        <ele>0.947</ele>
        <time>2011-08-05T08:23:24Z</time>
      </trkpt>
      <trkpt lat="46.92758" lon="-2.04043">
        <ele>1.297</ele>
        <time>2011-08-05T08:23:36Z</time>
      </trkpt>
      <trkpt lat="46.92901" lon="-2.0393">
        <ele>1.75</ele>
        <time>2011-08-05T08:23:58Z</time>
      </trkpt>
      <trkpt lat="46.92995" lon="-2.03854">
        <ele>1.856</ele>
        <time>2011-08-05T08:24:15Z</time>
      </trkpt>
      <trkpt lat="46.93003" lon="-2.03848">
        <ele>2.398</ele>
        <time>2011-08-05T08:24:18Z</time>
      </trkpt>
      <trkpt lat="46.93003" lon="-2.03848">
        <ele>2.728</ele>
        <time>2011-08-05T08:24:31Z</time>
      </trkpt>
    </trkseg>
  </trk>
</gpx>